sensor_id;sensor_type;location;lat;lon;timestamp;P1;durP1;ratioP1;P2;durP2;ratioP2
39540;SDS011;25219;52.244;21.006;2023-02-28T00:00:15;18.83;;;7.72;;
39540;SDS011;25219;52.244;21.006;2023-02-28T00:02:41;15.05;;;7.22;;
39540;SDS011;25219;52.244;21.006;2023-02-28T00:05:07;17.42;;;7.90;;
39540;SDS011;25219;52.244;21.006;2023-02-28T00:07:33;19.98;;;7.85;;
39540;SDS011;25219;52.244;21.006;2023-02-28T00:09:59;17.55;;;8.43;;
39540;SDS011;25219;52.244;21.006;2023-02-28T00:12:25;18.50;;;8.13;;
39540;SDS011;25219;52.244;21.006;2023-02-28T00:14:50;19.65;;;6.75;;
39540;SDS011;25219;52.244;21.006;2023-02-28T00:17:16;18.13;;;7.72;;
39540;SDS011;25219;52.244;21.006;2023-02-28T00:19:43;16.80;;;7.68;;
39540;SDS011;25219;52.244;21.006;2023-02-28T00:22:08;13.07;;;6.95;;
39540;SDS011;25219;52.244;21.006;2023-02-28T00:24:34;18.67;;;8.10;;
39540;SDS011;25219;52.244;21.006;2023-02-28T00:26:59;16.15;;;7.63;;
39540;SDS011;25219;52.244;21.006;2023-02-28T00:29:24;14.63;;;7.00;;
39540;SDS011;25219;52.244;21.006;2023-02-28T00:31:50;17.98;;;7.40;;
39540;SDS011;25219;52.244;21.006;2023-02-28T00:34:15;17.20;;;7.10;;
39540;SDS011;25219;52.244;21.006;2023-02-28T00:36:40;17.13;;;7.00;;
39540;SDS011;25219;52.244;21.006;2023-02-28T00:39:10;14.23;;;7.10;;
39540;SDS011;25219;52.244;21.006;2023-02-28T00:41:35;18.23;;;7.63;;
39540;SDS011;25219;52.244;21.006;2023-02-28T00:44:00;15.07;;;6.50;;
39540;SDS011;25219;52.244;21.006;2023-02-28T00:46:26;16.67;;;6.88;;
39540;SDS011;25219;52.244;21.006;2023-02-28T00:48:51;14.13;;;6.35;;
39540;SDS011;25219;52.244;21.006;2023-02-28T00:51:16;17.10;;;7.45;;
39540;SDS011;25219;52.244;21.006;2023-02-28T00:53:42;16.92;;;6.97;;
39540;SDS011;25219;52.244;21.006;2023-02-28T00:56:07;10.45;;;5.30;;
39540;SDS011;25219;52.244;21.006;2023-02-28T00:58:32;16.20;;;6.65;;
39540;SDS011;25219;52.244;21.006;2023-02-28T01:00:57;14.93;;;6.75;;
39540;SDS011;25219;52.244;21.006;2023-02-28T01:03:23;11.75;;;5.95;;
39540;SDS011;25219;52.244;21.006;2023-02-28T01:05:48;12.35;;;6.05;;
39540;SDS011;25219;52.244;21.006;2023-02-28T01:08:14;11.93;;;6.05;;
39540;SDS011;25219;52.244;21.006;2023-02-28T01:10:39;13.65;;;5.95;;
39540;SDS011;25219;52.244;21.006;2023-02-28T01:13:05;13.90;;;6.32;;
39540;SDS011;25219;52.244;21.006;2023-02-28T01:15:30;9.57;;;5.55;;
39540;SDS011;25219;52.244;21.006;2023-02-28T01:17:57;12.55;;;5.50;;
39540;SDS011;25219;52.244;21.006;2023-02-28T01:20:22;13.60;;;5.72;;
39540;SDS011;25219;52.244;21.006;2023-02-28T01:22:47;9.30;;;5.25;;
39540;SDS011;25219;52.244;21.006;2023-02-28T01:25:13;11.85;;;5.72;;
39540;SDS011;25219;52.244;21.006;2023-02-28T01:27:38;14.43;;;5.55;;
39540;SDS011;25219;52.244;21.006;2023-02-28T01:30:05;12.20;;;5.07;;
39540;SDS011;25219;52.244;21.006;2023-02-28T01:32:30;11.25;;;5.07;;
39540;SDS011;25219;52.244;21.006;2023-02-28T01:34:55;14.20;;;5.90;;
39540;SDS011;25219;52.244;21.006;2023-02-28T01:37:21;10.48;;;4.60;;
39540;SDS011;25219;52.244;21.006;2023-02-28T01:39:46;10.98;;;4.38;;
39540;SDS011;25219;52.244;21.006;2023-02-28T01:42:11;10.68;;;4.93;;
39540;SDS011;25219;52.244;21.006;2023-02-28T01:47:21;10.00;;;5.10;;
39540;SDS011;25219;52.244;21.006;2023-02-28T01:49:47;9.82;;;4.95;;
39540;SDS011;25219;52.244;21.006;2023-02-28T01:52:13;9.60;;;4.78;;
39540;SDS011;25219;52.244;21.006;2023-02-28T01:54:43;9.75;;;4.72;;
39540;SDS011;25219;52.244;21.006;2023-02-28T01:57:11;14.18;;;5.47;;
39540;SDS011;25219;52.244;21.006;2023-02-28T02:02:05;10.25;;;5.15;;
39540;SDS011;25219;52.244;21.006;2023-02-28T02:04:35;10.98;;;5.15;;
39540;SDS011;25219;52.244;21.006;2023-02-28T02:07:02;9.30;;;4.57;;
39540;SDS011;25219;52.244;21.006;2023-02-28T02:09:27;8.02;;;4.57;;
39540;SDS011;25219;52.244;21.006;2023-02-28T02:11:53;11.45;;;4.38;;
39540;SDS011;25219;52.244;21.006;2023-02-28T02:24:41;12.82;;;5.47;;
39540;SDS011;25219;52.244;21.006;2023-02-28T02:37:28;16.35;;;6.35;;
39540;SDS011;25219;52.244;21.006;2023-02-28T02:42:28;13.52;;;6.93;;
39540;SDS011;25219;52.244;21.006;2023-02-28T02:44:59;16.85;;;6.60;;
39540;SDS011;25219;52.244;21.006;2023-02-28T02:47:26;11.65;;;5.97;;
39540;SDS011;25219;52.244;21.006;2023-02-28T02:49:53;16.73;;;6.32;;
39540;SDS011;25219;52.244;21.006;2023-02-28T02:52:22;12.13;;;6.03;;
39540;SDS011;25219;52.244;21.006;2023-02-28T02:54:48;11.27;;;5.68;;
39540;SDS011;25219;52.244;21.006;2023-02-28T02:57:15;15.00;;;6.20;;
39540;SDS011;25219;52.244;21.006;2023-02-28T02:59:41;12.63;;;5.82;;
39540;SDS011;25219;52.244;21.006;2023-02-28T03:02:08;13.93;;;6.38;;
39540;SDS011;25219;52.244;21.006;2023-02-28T03:04:38;14.43;;;6.60;;
39540;SDS011;25219;52.244;21.006;2023-02-28T03:07:05;18.42;;;6.97;;
39540;SDS011;25219;52.244;21.006;2023-02-28T03:09:32;14.02;;;6.57;;
39540;SDS011;25219;52.244;21.006;2023-02-28T03:11:58;16.10;;;7.47;;
39540;SDS011;25219;52.244;21.006;2023-02-28T03:16:56;22.20;;;7.97;;
39540;SDS011;25219;52.244;21.006;2023-02-28T03:24:40;25.45;;;9.95;;
39540;SDS011;25219;52.244;21.006;2023-02-28T03:27:11;30.20;;;11.00;;
39540;SDS011;25219;52.244;21.006;2023-02-28T03:29:41;21.98;;;10.30;;
39540;SDS011;25219;52.244;21.006;2023-02-28T03:32:12;25.17;;;10.45;;
39540;SDS011;25219;52.244;21.006;2023-02-28T03:34:42;23.88;;;10.80;;
39540;SDS011;25219;52.244;21.006;2023-02-28T03:37:11;20.40;;;9.65;;
39540;SDS011;25219;52.244;21.006;2023-02-28T03:39:39;26.40;;;11.35;;
39540;SDS011;25219;52.244;21.006;2023-02-28T03:42:09;30.67;;;11.40;;
39540;SDS011;25219;52.244;21.006;2023-02-28T03:44:41;22.88;;;10.30;;
39540;SDS011;25219;52.244;21.006;2023-02-28T03:47:17;32.72;;;12.13;;
39540;SDS011;25219;52.244;21.006;2023-02-28T03:50:01;29.75;;;12.15;;
39540;SDS011;25219;52.244;21.006;2023-02-28T03:52:29;31.45;;;12.00;;
39540;SDS011;25219;52.244;21.006;2023-02-28T03:54:57;34.30;;;12.10;;
39540;SDS011;25219;52.244;21.006;2023-02-28T04:00:14;31.20;;;12.95;;
39540;SDS011;25219;52.244;21.006;2023-02-28T04:02:41;28.63;;;11.90;;
39540;SDS011;25219;52.244;21.006;2023-02-28T04:05:06;31.77;;;12.52;;
39540;SDS011;25219;52.244;21.006;2023-02-28T04:07:32;27.10;;;12.10;;
39540;SDS011;25219;52.244;21.006;2023-02-28T04:09:58;33.53;;;11.45;;
39540;SDS011;25219;52.244;21.006;2023-02-28T04:12:23;35.63;;;12.32;;
39540;SDS011;25219;52.244;21.006;2023-02-28T04:14:49;27.83;;;12.20;;
39540;SDS011;25219;52.244;21.006;2023-02-28T04:17:15;33.55;;;11.68;;
39540;SDS011;25219;52.244;21.006;2023-02-28T04:19:40;32.10;;;11.70;;
39540;SDS011;25219;52.244;21.006;2023-02-28T04:22:05;27.92;;;10.95;;
39540;SDS011;25219;52.244;21.006;2023-02-28T04:24:31;29.05;;;11.80;;
39540;SDS011;25219;52.244;21.006;2023-02-28T04:26:57;30.80;;;11.65;;
39540;SDS011;25219;52.244;21.006;2023-02-28T04:29:26;26.77;;;10.43;;
39540;SDS011;25219;52.244;21.006;2023-02-28T04:31:52;24.02;;;10.90;;
39540;SDS011;25219;52.244;21.006;2023-02-28T04:34:23;28.70;;;11.10;;
39540;SDS011;25219;52.244;21.006;2023-02-28T04:36:48;27.38;;;10.02;;
39540;SDS011;25219;52.244;21.006;2023-02-28T04:39:15;28.80;;;10.57;;
39540;SDS011;25219;52.244;21.006;2023-02-28T04:41:43;22.20;;;9.95;;
39540;SDS011;25219;52.244;21.006;2023-02-28T04:44:08;24.05;;;10.57;;
39540;SDS011;25219;52.244;21.006;2023-02-28T04:46:34;25.23;;;10.88;;
39540;SDS011;25219;52.244;21.006;2023-02-28T04:48:59;25.67;;;10.45;;
39540;SDS011;25219;52.244;21.006;2023-02-28T04:51:24;24.05;;;9.90;;
39540;SDS011;25219;52.244;21.006;2023-02-28T04:53:50;28.50;;;10.40;;
39540;SDS011;25219;52.244;21.006;2023-02-28T04:56:16;33.75;;;11.15;;
39540;SDS011;25219;52.244;21.006;2023-02-28T04:58:41;26.48;;;11.25;;
39540;SDS011;25219;52.244;21.006;2023-02-28T05:03:45;26.33;;;11.55;;
39540;SDS011;25219;52.244;21.006;2023-02-28T05:06:10;29.17;;;10.55;;
39540;SDS011;25219;52.244;21.006;2023-02-28T05:08:36;28.77;;;10.55;;
39540;SDS011;25219;52.244;21.006;2023-02-28T05:11:02;23.88;;;10.35;;
39540;SDS011;25219;52.244;21.006;2023-02-28T05:13:28;29.15;;;11.38;;
39540;SDS011;25219;52.244;21.006;2023-02-28T05:15:53;24.13;;;11.65;;
39540;SDS011;25219;52.244;21.006;2023-02-28T05:18:19;25.80;;;10.07;;
39540;SDS011;25219;52.244;21.006;2023-02-28T05:20:44;30.80;;;10.93;;
39540;SDS011;25219;52.244;21.006;2023-02-28T05:23:13;32.05;;;12.32;;
39540;SDS011;25219;52.244;21.006;2023-02-28T05:25:39;22.73;;;10.73;;
39540;SDS011;25219;52.244;21.006;2023-02-28T05:28:05;29.63;;;11.20;;
39540;SDS011;25219;52.244;21.006;2023-02-28T05:30:30;31.95;;;11.63;;
39540;SDS011;25219;52.244;21.006;2023-02-28T05:32:59;27.77;;;11.05;;
39540;SDS011;25219;52.244;21.006;2023-02-28T05:35:25;28.30;;;12.30;;
39540;SDS011;25219;52.244;21.006;2023-02-28T05:37:50;30.42;;;13.00;;
39540;SDS011;25219;52.244;21.006;2023-02-28T05:40:16;27.52;;;12.43;;
39540;SDS011;25219;52.244;21.006;2023-02-28T05:42:42;25.08;;;11.13;;
39540;SDS011;25219;52.244;21.006;2023-02-28T05:45:07;30.35;;;12.85;;
39540;SDS011;25219;52.244;21.006;2023-02-28T05:47:33;25.92;;;11.25;;
39540;SDS011;25219;52.244;21.006;2023-02-28T05:49:58;30.95;;;12.40;;
39540;SDS011;25219;52.244;21.006;2023-02-28T05:52:25;27.60;;;12.00;;
39540;SDS011;25219;52.244;21.006;2023-02-28T05:54:50;26.08;;;10.70;;
39540;SDS011;25219;52.244;21.006;2023-02-28T05:57:15;23.05;;;11.40;;
39540;SDS011;25219;52.244;21.006;2023-02-28T05:59:41;29.35;;;11.02;;
39540;SDS011;25219;52.244;21.006;2023-02-28T06:02:08;24.40;;;10.30;;
39540;SDS011;25219;52.244;21.006;2023-02-28T06:04:35;30.27;;;11.05;;
39540;SDS011;25219;52.244;21.006;2023-02-28T06:07:01;34.97;;;11.77;;
39540;SDS011;25219;52.244;21.006;2023-02-28T06:09:26;25.10;;;11.20;;
39540;SDS011;25219;52.244;21.006;2023-02-28T06:11:52;27.88;;;12.15;;
39540;SDS011;25219;52.244;21.006;2023-02-28T06:14:18;34.70;;;13.93;;
39540;SDS011;25219;52.244;21.006;2023-02-28T06:16:43;31.35;;;13.13;;
39540;SDS011;25219;52.244;21.006;2023-02-28T06:19:09;36.25;;;13.10;;
39540;SDS011;25219;52.244;21.006;2023-02-28T06:21:35;32.10;;;12.88;;
39540;SDS011;25219;52.244;21.006;2023-02-28T06:24:00;31.13;;;12.57;;
39540;SDS011;25219;52.244;21.006;2023-02-28T06:26:26;30.52;;;12.93;;
39540;SDS011;25219;52.244;21.006;2023-02-28T06:28:51;30.65;;;13.70;;
39540;SDS011;25219;52.244;21.006;2023-02-28T06:31:17;26.00;;;11.75;;
39540;SDS011;25219;52.244;21.006;2023-02-28T06:33:42;22.13;;;9.23;;
39540;SDS011;25219;52.244;21.006;2023-02-28T06:36:08;22.90;;;9.45;;
39540;SDS011;25219;52.244;21.006;2023-02-28T06:38:34;26.08;;;10.52;;
39540;SDS011;25219;52.244;21.006;2023-02-28T06:41:00;26.52;;;11.18;;
39540;SDS011;25219;52.244;21.006;2023-02-28T06:43:27;27.15;;;11.50;;
39540;SDS011;25219;52.244;21.006;2023-02-28T06:45:57;27.65;;;11.43;;
39540;SDS011;25219;52.244;21.006;2023-02-28T06:48:23;25.33;;;10.75;;
39540;SDS011;25219;52.244;21.006;2023-02-28T06:50:48;25.30;;;8.80;;
39540;SDS011;25219;52.244;21.006;2023-02-28T06:53:13;20.63;;;9.07;;
39540;SDS011;25219;52.244;21.006;2023-02-28T06:55:39;25.35;;;8.30;;
39540;SDS011;25219;52.244;21.006;2023-02-28T06:58:05;11.98;;;6.80;;
39540;SDS011;25219;52.244;21.006;2023-02-28T07:00:43;24.50;;;8.35;;
39540;SDS011;25219;52.244;21.006;2023-02-28T07:03:09;18.10;;;8.07;;
39540;SDS011;25219;52.244;21.006;2023-02-28T07:05:35;18.75;;;8.07;;
39540;SDS011;25219;52.244;21.006;2023-02-28T07:08:00;20.48;;;9.88;;
39540;SDS011;25219;52.244;21.006;2023-02-28T07:10:26;27.40;;;9.27;;
39540;SDS011;25219;52.244;21.006;2023-02-28T07:12:51;25.60;;;9.60;;
39540;SDS011;25219;52.244;21.006;2023-02-28T07:15:16;17.70;;;8.13;;
39540;SDS011;25219;52.244;21.006;2023-02-28T07:17:42;20.48;;;8.02;;
39540;SDS011;25219;52.244;21.006;2023-02-28T07:20:07;19.55;;;8.23;;
39540;SDS011;25219;52.244;21.006;2023-02-28T07:22:33;13.60;;;6.68;;
39540;SDS011;25219;52.244;21.006;2023-02-28T07:24:58;21.30;;;7.63;;
39540;SDS011;25219;52.244;21.006;2023-02-28T07:27:23;14.35;;;6.07;;
39540;SDS011;25219;52.244;21.006;2023-02-28T07:29:50;9.77;;;5.53;;
39540;SDS011;25219;52.244;21.006;2023-02-28T07:32:15;7.07;;;4.57;;
39540;SDS011;25219;52.244;21.006;2023-02-28T07:34:41;7.28;;;4.38;;
39540;SDS011;25219;52.244;21.006;2023-02-28T07:37:06;10.52;;;5.32;;
39540;SDS011;25219;52.244;21.006;2023-02-28T07:39:32;9.73;;;4.88;;
39540;SDS011;25219;52.244;21.006;2023-02-28T07:41:57;11.20;;;4.72;;
39540;SDS011;25219;52.244;21.006;2023-02-28T07:44:23;8.38;;;4.35;;
39540;SDS011;25219;52.244;21.006;2023-02-28T07:46:48;12.48;;;4.40;;
39540;SDS011;25219;52.244;21.006;2023-02-28T07:49:13;10.05;;;4.43;;
39540;SDS011;25219;52.244;21.006;2023-02-28T07:51:39;7.25;;;4.47;;
39540;SDS011;25219;52.244;21.006;2023-02-28T07:54:04;7.72;;;4.70;;
39540;SDS011;25219;52.244;21.006;2023-02-28T07:56:30;9.15;;;4.45;;
39540;SDS011;25219;52.244;21.006;2023-02-28T07:58:55;7.97;;;4.05;;
39540;SDS011;25219;52.244;21.006;2023-02-28T08:01:20;9.95;;;5.25;;
39540;SDS011;25219;52.244;21.006;2023-02-28T08:03:46;9.32;;;4.40;;
39540;SDS011;25219;52.244;21.006;2023-02-28T08:06:19;10.23;;;3.72;;
39540;SDS011;25219;52.244;21.006;2023-02-28T08:08:44;12.52;;;4.28;;
39540;SDS011;25219;52.244;21.006;2023-02-28T08:11:10;8.40;;;4.45;;
39540;SDS011;25219;52.244;21.006;2023-02-28T08:13:35;10.27;;;4.88;;
39540;SDS011;25219;52.244;21.006;2023-02-28T08:16:01;9.52;;;5.32;;
39540;SDS011;25219;52.244;21.006;2023-02-28T08:18:27;12.02;;;4.82;;
39540;SDS011;25219;52.244;21.006;2023-02-28T08:20:52;9.32;;;4.57;;
39540;SDS011;25219;52.244;21.006;2023-02-28T08:23:17;10.95;;;5.40;;
39540;SDS011;25219;52.244;21.006;2023-02-28T08:25:52;11.90;;;5.10;;
39540;SDS011;25219;52.244;21.006;2023-02-28T08:28:18;10.88;;;5.80;;
39540;SDS011;25219;52.244;21.006;2023-02-28T08:30:43;10.10;;;4.78;;
39540;SDS011;25219;52.244;21.006;2023-02-28T08:33:08;14.00;;;5.07;;
39540;SDS011;25219;52.244;21.006;2023-02-28T08:35:35;10.52;;;4.88;;
39540;SDS011;25219;52.244;21.006;2023-02-28T08:38:00;11.48;;;5.30;;
39540;SDS011;25219;52.244;21.006;2023-02-28T08:40:25;10.43;;;5.93;;
39540;SDS011;25219;52.244;21.006;2023-02-28T08:42:50;10.63;;;5.63;;
39540;SDS011;25219;52.244;21.006;2023-02-28T08:45:16;9.43;;;5.32;;
39540;SDS011;25219;52.244;21.006;2023-02-28T08:47:41;10.07;;;5.57;;
39540;SDS011;25219;52.244;21.006;2023-02-28T08:50:07;11.07;;;5.22;;
39540;SDS011;25219;52.244;21.006;2023-02-28T08:52:32;9.95;;;5.90;;
39540;SDS011;25219;52.244;21.006;2023-02-28T08:54:58;9.90;;;5.57;;
39540;SDS011;25219;52.244;21.006;2023-02-28T08:57:23;9.32;;;5.65;;
39540;SDS011;25219;52.244;21.006;2023-02-28T08:59:51;10.82;;;6.15;;
39540;SDS011;25219;52.244;21.006;2023-02-28T09:02:16;13.55;;;5.75;;
39540;SDS011;25219;52.244;21.006;2023-02-28T09:04:41;9.07;;;6.22;;
39540;SDS011;25219;52.244;21.006;2023-02-28T09:07:07;11.35;;;5.65;;
39540;SDS011;25219;52.244;21.006;2023-02-28T09:09:32;8.52;;;5.70;;
39540;SDS011;25219;52.244;21.006;2023-02-28T09:11:57;13.07;;;6.15;;
39540;SDS011;25219;52.244;21.006;2023-02-28T09:14:23;11.32;;;6.70;;
39540;SDS011;25219;52.244;21.006;2023-02-28T09:16:48;8.25;;;5.45;;
39540;SDS011;25219;52.244;21.006;2023-02-28T09:19:14;9.55;;;5.88;;
39540;SDS011;25219;52.244;21.006;2023-02-28T09:21:39;9.52;;;6.20;;
39540;SDS011;25219;52.244;21.006;2023-02-28T09:24:05;10.70;;;5.47;;
39540;SDS011;25219;52.244;21.006;2023-02-28T09:26:30;12.63;;;5.80;;
39540;SDS011;25219;52.244;21.006;2023-02-28T09:28:55;14.90;;;6.82;;
39540;SDS011;25219;52.244;21.006;2023-02-28T09:31:25;12.30;;;6.20;;
39540;SDS011;25219;52.244;21.006;2023-02-28T09:33:51;10.63;;;5.88;;
39540;SDS011;25219;52.244;21.006;2023-02-28T09:36:17;7.70;;;6.05;;
39540;SDS011;25219;52.244;21.006;2023-02-28T09:38:42;13.85;;;7.03;;
39540;SDS011;25219;52.244;21.006;2023-02-28T09:41:24;14.35;;;7.25;;
39540;SDS011;25219;52.244;21.006;2023-02-28T09:43:55;11.13;;;7.03;;
39540;SDS011;25219;52.244;21.006;2023-02-28T09:48:49;13.77;;;6.50;;
39540;SDS011;25219;52.244;21.006;2023-02-28T09:51:23;10.93;;;6.82;;
39540;SDS011;25219;52.244;21.006;2023-02-28T09:53:51;10.15;;;6.47;;
39540;SDS011;25219;52.244;21.006;2023-02-28T09:56:25;11.43;;;6.75;;
39540;SDS011;25219;52.244;21.006;2023-02-28T10:03:47;12.48;;;6.97;;
39540;SDS011;25219;52.244;21.006;2023-02-28T10:06:19;13.52;;;6.40;;
39540;SDS011;25219;52.244;21.006;2023-02-28T10:11:22;14.15;;;7.88;;
39540;SDS011;25219;52.244;21.006;2023-02-28T10:18:54;13.93;;;7.32;;
39540;SDS011;25219;52.244;21.006;2023-02-28T10:21:38;12.93;;;7.07;;
39540;SDS011;25219;52.244;21.006;2023-02-28T10:24:50;12.85;;;7.95;;
39540;SDS011;25219;52.244;21.006;2023-02-28T10:26:49;16.60;;;7.95;;
39540;SDS011;25219;52.244;21.006;2023-02-28T10:29:17;15.10;;;7.57;;
39540;SDS011;25219;52.244;21.006;2023-02-28T10:31:43;13.07;;;7.55;;
39540;SDS011;25219;52.244;21.006;2023-02-28T10:34:08;12.82;;;7.28;;
39540;SDS011;25219;52.244;21.006;2023-02-28T10:36:36;14.93;;;7.95;;
39540;SDS011;25219;52.244;21.006;2023-02-28T10:39:03;17.35;;;7.88;;
39540;SDS011;25219;52.244;21.006;2023-02-28T10:41:47;18.15;;;8.18;;
39540;SDS011;25219;52.244;21.006;2023-02-28T10:46:38;14.63;;;7.72;;
39540;SDS011;25219;52.244;21.006;2023-02-28T10:49:06;14.15;;;7.95;;
39540;SDS011;25219;52.244;21.006;2023-02-28T10:51:38;15.50;;;7.57;;
39540;SDS011;25219;52.244;21.006;2023-02-28T10:54:04;15.23;;;7.32;;
39540;SDS011;25219;52.244;21.006;2023-02-28T10:56:30;16.33;;;7.70;;
39540;SDS011;25219;52.244;21.006;2023-02-28T10:59:00;13.65;;;7.40;;
39540;SDS011;25219;52.244;21.006;2023-02-28T11:06:32;14.38;;;6.85;;
39540;SDS011;25219;52.244;21.006;2023-02-28T11:08:58;15.82;;;7.38;;
39540;SDS011;25219;52.244;21.006;2023-02-28T11:11:25;11.68;;;6.72;;
39540;SDS011;25219;52.244;21.006;2023-02-28T11:16:37;12.63;;;7.50;;
39540;SDS011;25219;52.244;21.006;2023-02-28T11:19:03;12.80;;;7.40;;
39540;SDS011;25219;52.244;21.006;2023-02-28T11:21:31;13.77;;;7.85;;
39540;SDS011;25219;52.244;21.006;2023-02-28T11:24:05;16.25;;;8.02;;
39540;SDS011;25219;52.244;21.006;2023-02-28T11:26:45;13.60;;;7.53;;
39540;SDS011;25219;52.244;21.006;2023-02-28T11:29:21;16.35;;;8.00;;
39540;SDS011;25219;52.244;21.006;2023-02-28T11:32:31;11.98;;;7.40;;
39540;SDS011;25219;52.244;21.006;2023-02-28T11:34:34;12.77;;;7.68;;
39540;SDS011;25219;52.244;21.006;2023-02-28T11:36:59;10.57;;;6.72;;
39540;SDS011;25219;52.244;21.006;2023-02-28T11:39:26;11.93;;;7.28;;
39540;SDS011;25219;52.244;21.006;2023-02-28T11:46:49;15.80;;;7.47;;
39540;SDS011;25219;52.244;21.006;2023-02-28T11:49:32;14.00;;;7.78;;
39540;SDS011;25219;52.244;21.006;2023-02-28T11:52:02;14.75;;;7.93;;
39540;SDS011;25219;52.244;21.006;2023-02-28T11:57:28;15.32;;;8.65;;
39540;SDS011;25219;52.244;21.006;2023-02-28T12:00:21;20.65;;;8.93;;
39540;SDS011;25219;52.244;21.006;2023-02-28T12:02:50;13.18;;;7.68;;
39540;SDS011;25219;52.244;21.006;2023-02-28T12:05:27;14.15;;;8.15;;
39540;SDS011;25219;52.244;21.006;2023-02-28T12:11:05;14.38;;;8.23;;
39540;SDS011;25219;52.244;21.006;2023-02-28T12:13:26;16.80;;;8.15;;
39540;SDS011;25219;52.244;21.006;2023-02-28T12:28:49;17.27;;;8.30;;
39540;SDS011;25219;52.244;21.006;2023-02-28T12:31:26;10.63;;;7.22;;
39540;SDS011;25219;52.244;21.006;2023-02-28T12:33:52;22.23;;;8.80;;
39540;SDS011;25219;52.244;21.006;2023-02-28T12:36:19;17.38;;;8.73;;
39540;SDS011;25219;52.244;21.006;2023-02-28T12:38:57;13.18;;;8.38;;
39540;SDS011;25219;52.244;21.006;2023-02-28T12:44:03;15.63;;;8.55;;
39540;SDS011;25219;52.244;21.006;2023-02-28T12:46:35;15.63;;;8.48;;
39540;SDS011;25219;52.244;21.006;2023-02-28T12:49:05;17.58;;;8.32;;
39540;SDS011;25219;52.244;21.006;2023-02-28T12:51:31;16.23;;;8.80;;
39540;SDS011;25219;52.244;21.006;2023-02-28T12:58:52;19.83;;;9.25;;
39540;SDS011;25219;52.244;21.006;2023-02-28T13:04:08;16.33;;;8.77;;
39540;SDS011;25219;52.244;21.006;2023-02-28T13:06:41;16.98;;;8.65;;
39540;SDS011;25219;52.244;21.006;2023-02-28T13:14:05;15.60;;;9.07;;
39540;SDS011;25219;52.244;21.006;2023-02-28T13:19:15;14.63;;;8.68;;
39540;SDS011;25219;52.244;21.006;2023-02-28T13:21:43;19.58;;;8.63;;
39540;SDS011;25219;52.244;21.006;2023-02-28T13:24:09;15.32;;;8.23;;
39540;SDS011;25219;52.244;21.006;2023-02-28T13:29:01;20.27;;;9.77;;
39540;SDS011;25219;52.244;21.006;2023-02-28T13:31:29;21.63;;;10.13;;
39540;SDS011;25219;52.244;21.006;2023-02-28T13:38:48;16.80;;;9.52;;
39540;SDS011;25219;52.244;21.006;2023-02-28T13:44:11;14.10;;;8.98;;
39540;SDS011;25219;52.244;21.006;2023-02-28T13:51:51;17.10;;;8.70;;
39540;SDS011;25219;52.244;21.006;2023-02-28T13:54:24;20.38;;;8.82;;
39540;SDS011;25219;52.244;21.006;2023-02-28T13:59:23;20.40;;;8.30;;
39540;SDS011;25219;52.244;21.006;2023-02-28T14:01:58;20.55;;;8.90;;
39540;SDS011;25219;52.244;21.006;2023-02-28T14:07:15;15.05;;;8.55;;
39540;SDS011;25219;52.244;21.006;2023-02-28T14:09:44;15.45;;;8.95;;
39540;SDS011;25219;52.244;21.006;2023-02-28T14:14:55;14.20;;;8.02;;
39540;SDS011;25219;52.244;21.006;2023-02-28T14:17:20;19.13;;;7.78;;
39540;SDS011;25219;52.244;21.006;2023-02-28T14:19:46;12.65;;;7.13;;
39540;SDS011;25219;52.244;21.006;2023-02-28T14:38:13;17.98;;;8.52;;
39540;SDS011;25219;52.244;21.006;2023-02-28T14:40:39;16.35;;;7.47;;
39540;SDS011;25219;52.244;21.006;2023-02-28T14:43:06;19.15;;;9.63;;
39540;SDS011;25219;52.244;21.006;2023-02-28T14:45:32;15.77;;;8.05;;
39540;SDS011;25219;52.244;21.006;2023-02-28T14:47:58;15.77;;;7.40;;
39540;SDS011;25219;52.244;21.006;2023-02-28T14:50:30;13.57;;;7.70;;
39540;SDS011;25219;52.244;21.006;2023-02-28T14:52:56;15.52;;;7.05;;
39540;SDS011;25219;52.244;21.006;2023-02-28T14:55:29;15.02;;;7.57;;
39540;SDS011;25219;52.244;21.006;2023-02-28T14:57:57;16.88;;;7.43;;
39540;SDS011;25219;52.244;21.006;2023-02-28T15:00:24;16.65;;;7.95;;
39540;SDS011;25219;52.244;21.006;2023-02-28T15:02:52;14.43;;;8.00;;
39540;SDS011;25219;52.244;21.006;2023-02-28T15:05:23;20.50;;;8.50;;
39540;SDS011;25219;52.244;21.006;2023-02-28T15:07:49;14.10;;;7.68;;
39540;SDS011;25219;52.244;21.006;2023-02-28T15:10:25;17.25;;;7.93;;
39540;SDS011;25219;52.244;21.006;2023-02-28T15:15:16;17.05;;;8.23;;
39540;SDS011;25219;52.244;21.006;2023-02-28T15:17:46;16.75;;;8.00;;
39540;SDS011;25219;52.244;21.006;2023-02-28T15:20:13;19.60;;;8.32;;
39540;SDS011;25219;52.244;21.006;2023-02-28T15:22:39;18.13;;;7.55;;
39540;SDS011;25219;52.244;21.006;2023-02-28T15:25:05;14.00;;;7.25;;
39540;SDS011;25219;52.244;21.006;2023-02-28T15:27:33;19.67;;;8.10;;
39540;SDS011;25219;52.244;21.006;2023-02-28T15:30:00;15.57;;;8.32;;
39540;SDS011;25219;52.244;21.006;2023-02-28T15:32:34;18.45;;;8.82;;
39540;SDS011;25219;52.244;21.006;2023-02-28T15:35:16;16.10;;;8.07;;
39540;SDS011;25219;52.244;21.006;2023-02-28T15:37:52;15.82;;;7.95;;
39540;SDS011;25219;52.244;21.006;2023-02-28T15:40:37;20.45;;;8.23;;
39540;SDS011;25219;52.244;21.006;2023-02-28T15:43:07;18.73;;;8.00;;
39540;SDS011;25219;52.244;21.006;2023-02-28T15:48:12;16.75;;;8.25;;
39540;SDS011;25219;52.244;21.006;2023-02-28T15:50:39;13.70;;;8.35;;
39540;SDS011;25219;52.244;21.006;2023-02-28T15:53:04;18.13;;;8.00;;
39540;SDS011;25219;52.244;21.006;2023-02-28T15:55:37;21.45;;;8.82;;
39540;SDS011;25219;52.244;21.006;2023-02-28T15:58:02;20.77;;;9.07;;
39540;SDS011;25219;52.244;21.006;2023-02-28T16:00:28;18.20;;;8.23;;
39540;SDS011;25219;52.244;21.006;2023-02-28T16:02:54;17.48;;;8.80;;
39540;SDS011;25219;52.244;21.006;2023-02-28T16:05:29;16.55;;;8.85;;
39540;SDS011;25219;52.244;21.006;2023-02-28T16:07:58;16.27;;;9.30;;
39540;SDS011;25219;52.244;21.006;2023-02-28T16:10:24;19.17;;;9.27;;
39540;SDS011;25219;52.244;21.006;2023-02-28T16:12:52;20.95;;;10.05;;
39540;SDS011;25219;52.244;21.006;2023-02-28T16:15:19;18.08;;;8.52;;
39540;SDS011;25219;52.244;21.006;2023-02-28T16:17:45;20.80;;;9.73;;
39540;SDS011;25219;52.244;21.006;2023-02-28T16:20:12;16.63;;;9.27;;
39540;SDS011;25219;52.244;21.006;2023-02-28T16:22:38;19.02;;;8.73;;
39540;SDS011;25219;52.244;21.006;2023-02-28T16:25:04;19.85;;;10.27;;
39540;SDS011;25219;52.244;21.006;2023-02-28T16:27:33;17.55;;;9.73;;
39540;SDS011;25219;52.244;21.006;2023-02-28T16:30:00;19.83;;;9.13;;
39540;SDS011;25219;52.244;21.006;2023-02-28T16:32:26;25.73;;;10.07;;
39540;SDS011;25219;52.244;21.006;2023-02-28T16:34:51;20.60;;;10.00;;
39540;SDS011;25219;52.244;21.006;2023-02-28T16:37:17;23.52;;;10.40;;
39540;SDS011;25219;52.244;21.006;2023-02-28T16:39:43;20.90;;;9.88;;
39540;SDS011;25219;52.244;21.006;2023-02-28T16:42:14;19.88;;;9.65;;
39540;SDS011;25219;52.244;21.006;2023-02-28T16:44:41;27.17;;;10.98;;
39540;SDS011;25219;52.244;21.006;2023-02-28T16:47:08;22.50;;;10.23;;
39540;SDS011;25219;52.244;21.006;2023-02-28T16:49:35;28.05;;;11.38;;
39540;SDS011;25219;52.244;21.006;2023-02-28T16:52:01;23.30;;;11.10;;